Pray, Montana
Current Conditions -  °F | °C
As of 4:53 AM on Friday 24 Oct 2014 (Local Time) from KLVM Reporting Station
Overcast Overcast  
Wind Chill: 58°   Ceiling: 9000
Heat Index: 58°   Visibility: 10mi
Dew Point: 34°   Wind: 24mph
Humidity: 41%   Direction: 230°SW
Pressure: 29.95"   Gusts: 35mph
Location:  45.38°N, 110.68°W
Report Text: KLVM 241053Z AUTO 23021G30KT 10SM OVC090 14/01 A2995 RMK AO2 PK WND 22032/1007 SLP112 T01440011
Loading
Personal Weather Stations






























Interactive Weather Map
Tropical Storm Tracking
New forecast layout! Learn more

10-Day Weather Forecast

Advertisements
Track Severe Weather on mobile